Time;durP1;ratioP1;P1;durP2;ratioP2;P2;SDS_P1;SDS_P2;PMS_P1;PMS_P2;Temp;Humidity;BMP_temperature;BMP_pressure;BME280_temperature;BME280_humidity;BME280_pressure;Samples;Min_cycle;Max_cycle;Signal;HPM_P1;HPM_P2
2021/04/29 00:00:44;;;;;;;9.48;6.28;;;11.00;72.20;;;;;;5098584;28;20032;-87
2021/04/29 00:03:09;;;;;;;11.18;6.80;;;10.90;72.40;;;;;;5086746;28;20024;-86
2021/04/29 00:05:36;;;;;;;9.80;6.55;;;10.90;72.50;;;;;;5103055;28;20373;-87
2021/04/29 00:08:02;;;;;;;9.93;6.43;;;10.90;72.80;;;;;;5090496;28;20164;-86
2021/04/29 00:10:30;;;;;;;9.48;6.00;;;10.80;72.90;;;;;;5107847;28;20277;-86
2021/04/29 00:12:56;;;;;;;9.27;6.32;;;10.80;73.80;;;;;;5097300;28;20082;-86
2021/04/29 00:15:22;;;;;;;12.13;7.22;;;10.80;73.60;;;;;;5100997;28;20401;-86
2021/04/29 00:17:47;;;;;;;9.80;6.38;;;10.70;74.00;;;;;;5090803;28;20016;-85
2021/04/29 00:20:17;;;;;;;9.70;6.85;;;10.70;74.00;;;;;;5103003;28;20031;-86
2021/04/29 00:22:43;;;;;;;10.60;7.40;;;10.70;74.40;;;;;;5089943;28;20027;-85
2021/04/29 00:25:10;;;;;;;10.45;7.65;;;10.70;74.60;;;;;;5100702;28;20389;-86
2021/04/29 00:27:35;;;;;;;11.02;6.78;;;10.60;74.70;;;;;;5111905;28;20020;-86
2021/04/29 00:30:02;;;;;;;10.00;6.75;;;10.60;74.90;;;;;;5112154;28;20035;-86
2021/04/29 00:32:28;;;;;;;11.23;7.32;;;10.50;75.00;;;;;;5112003;28;20088;-86
2021/04/29 00:34:53;;;;;;;10.27;7.22;;;10.50;75.40;;;;;;5112040;28;20020;-86
2021/04/29 00:37:19;;;;;;;11.90;7.85;;;10.50;75.70;;;;;;5111865;28;20028;-85
2021/04/29 00:39:44;;;;;;;9.13;6.65;;;10.50;75.90;;;;;;5111300;28;20027;-85
2021/04/29 00:42:10;;;;;;;10.50;6.90;;;10.40;75.90;;;;;;5092733;28;20020;-85
2021/04/29 00:44:36;;;;;;;11.52;7.88;;;10.50;76.00;;;;;;5105729;28;20050;-85
2021/04/29 00:47:02;;;;;;;10.45;7.00;;;10.50;76.20;;;;;;5101953;28;20486;-86
2021/04/29 00:49:27;;;;;;;9.15;6.30;;;10.40;76.20;;;;;;5100186;28;20020;-86
2021/04/29 00:51:53;;;;;;;12.80;7.30;;;10.40;76.30;;;;;;5101227;28;20064;-86
2021/04/29 00:54:22;;;;;;;12.20;7.65;;;10.40;76.60;;;;;;5098787;28;20007;-87
2021/04/29 00:56:48;;;;;;;13.60;8.02;;;10.40;77.00;;;;;;5101026;28;20035;-86
2021/04/29 00:59:13;;;;;;;11.05;7.80;;;10.40;77.20;;;;;;5099012;28;20013;-84
2021/04/29 01:01:39;;;;;;;10.27;7.53;;;10.30;77.20;;;;;;5101050;28;20426;-86
2021/04/29 01:04:19;;;;;;;8.90;6.38;;;10.30;77.40;;;;;;5100695;28;20020;-86
2021/04/29 01:07:08;;;;;;;9.60;5.88;;;10.20;77.60;;;;;;5129448;27;20358;-86
2021/04/29 01:09:56;;;;;;;9.27;6.20;;;10.20;77.70;;;;;;5105068;28;20028;-86
2021/04/29 01:12:37;;;;;;;8.40;5.80;;;10.10;78.00;;;;;;5103975;28;20031;-86
2021/04/29 01:15:04;;;;;;;11.05;6.70;;;10.10;78.40;;;;;;5129479;27;20023;-86
2021/04/29 01:17:31;;;;;;;9.63;6.60;;;10.00;78.80;;;;;;5103151;28;20366;-87
2021/04/29 01:20:06;;;;;;;11.65;7.07;;;9.90;79.00;;;;;;5105951;28;20070;-86
2021/04/29 01:22:37;;;;;;;10.25;7.20;;;9.90;79.20;;;;;;5102726;28;20458;-86
2021/04/29 01:25:08;;;;;;;10.80;7.18;;;9.90;79.50;;;;;;5103556;28;20420;-86
2021/04/29 01:27:34;;;;;;;10.75;7.88;;;9.80;79.80;;;;;;5102460;28;20028;-87
2021/04/29 01:30:03;;;;;;;11.82;8.10;;;9.70;80.00;;;;;;5103105;28;20043;-86
2021/04/29 01:32:29;;;;;;;12.52;8.25;;;9.70;80.50;;;;;;5103192;28;20020;-87
2021/04/29 01:34:58;;;;;;;11.75;9.10;;;9.70;81.00;;;;;;5104652;28;20098;-87
2021/04/29 01:37:24;;;;;;;13.70;9.60;;;9.60;81.40;;;;;;5103444;28;20190;-88
2021/04/29 01:39:50;;;;;;;12.48;8.18;;;9.60;81.70;;;;;;5102799;28;20161;-87
2021/04/29 01:42:15;;;;;;;12.85;8.35;;;9.60;82.00;;;;;;5104448;28;20031;-86
2021/04/29 01:44:41;;;;;;;11.65;8.50;;;9.60;82.10;;;;;;5102516;28;20103;-87
2021/04/29 01:47:07;;;;;;;15.27;9.02;;;9.60;82.30;;;;;;5105289;28;20020;-85
2021/04/29 01:49:33;;;;;;;10.90;8.13;;;9.60;82.80;;;;;;5104927;28;20038;-87
2021/04/29 01:52:00;;;;;;;11.52;7.97;;;9.60;82.80;;;;;;5102286;28;20016;-86
2021/04/29 01:54:26;;;;;;;14.02;8.52;;;9.60;82.90;;;;;;5103595;28;20091;-86
2021/04/29 01:56:52;;;;;;;11.20;7.80;;;9.50;83.20;;;;;;5101314;28;20024;-85
2021/04/29 01:59:19;;;;;;;11.65;7.90;;;9.50;83.60;;;;;;5101968;28;20082;-87
2021/04/29 02:01:45;;;;;;;9.55;7.45;;;9.50;83.60;;;;;;5104731;28;20047;-88
2021/04/29 02:04:11;;;;;;;12.70;9.45;;;9.50;83.80;;;;;;5114562;28;20053;-87
2021/04/29 02:06:39;;;;;;;10.40;7.22;;;9.50;84.40;;;;;;5114530;28;20066;-84
2021/04/29 02:09:07;;;;;;;10.38;7.60;;;9.50;84.40;;;;;;5114080;28;20052;-85
2021/04/29 02:11:37;;;;;;;10.18;7.90;;;9.50;85.10;;;;;;5112814;28;20027;-86
2021/04/29 02:14:06;;;;;;;11.20;8.40;;;9.50;84.70;;;;;;5113864;28;20047;-86
2021/04/29 02:16:37;;;;;;;11.40;8.13;;;9.50;84.80;;;;;;5113572;28;20043;-85
2021/04/29 02:19:05;;;;;;;10.15;6.97;;;9.50;84.70;;;;;;5113742;28;20024;-86
2021/04/29 02:21:31;;;;;;;11.07;7.90;;;9.50;84.80;;;;;;5113814;28;20016;-85
2021/04/29 02:23:57;;;;;;;11.60;7.45;;;9.50;85.00;;;;;;5114152;28;20023;-85
2021/04/29 02:26:24;;;;;;;10.07;6.90;;;9.50;85.10;;;;;;5113862;28;20027;-85
2021/04/29 02:28:50;;;;;;;11.25;8.00;;;9.50;85.10;;;;;;5114052;28;20131;-86
2021/04/29 02:31:17;;;;;;;10.48;7.38;;;9.50;85.30;;;;;;5113946;28;20030;-86
2021/04/29 02:33:43;;;;;;;10.30;7.50;;;9.50;85.40;;;;;;5113927;28;20054;-86
2021/04/29 02:36:09;;;;;;;10.68;7.53;;;9.50;85.60;;;;;;5113992;28;20056;-86
2021/04/29 02:38:36;;;;;;;11.43;8.32;;;9.40;85.70;;;;;;5114928;28;20051;-86
2021/04/29 02:41:06;;;;;;;10.88;7.85;;;9.40;86.10;;;;;;5113441;28;20031;-86
2021/04/29 02:43:32;;;;;;;10.90;7.30;;;9.40;86.30;;;;;;5113728;28;20023;-85
2021/04/29 02:45:58;;;;;;;10.93;8.20;;;9.40;86.40;;;;;;5113428;28;20035;-85
2021/04/29 02:48:25;;;;;;;9.20;7.10;;;9.50;86.60;;;;;;5113479;28;20075;-85
2021/04/29 02:50:51;;;;;;;11.98;8.68;;;9.50;86.60;;;;;;5113722;28;20053;-85
2021/04/29 02:53:18;;;;;;;10.27;7.95;;;9.50;87.00;;;;;;5113537;28;20016;-86
2021/04/29 02:55:44;;;;;;;10.25;7.45;;;9.40;87.00;;;;;;5113201;28;20037;-85
2021/04/29 02:58:13;;;;;;;9.95;7.57;;;9.50;87.00;;;;;;5113307;28;20068;-84
2021/04/29 03:00:40;;;;;;;10.98;7.72;;;9.40;87.00;;;;;;5113648;28;20034;-85
2021/04/29 03:03:07;;;;;;;11.32;7.35;;;9.40;87.30;;;;;;5113103;28;20094;-86
2021/04/29 03:05:34;;;;;;;9.90;7.22;;;9.40;87.40;;;;;;5113056;28;20027;-86
2021/04/29 03:07:59;;;;;;;10.40;7.10;;;9.40;87.50;;;;;;5113055;28;20075;-85
2021/04/29 03:10:25;;;;;;;9.57;6.47;;;9.40;87.70;;;;;;5112804;28;20023;-85
2021/04/29 03:12:51;;;;;;;10.60;7.05;;;9.40;87.80;;;;;;5113134;28;20024;-85
2021/04/29 03:15:18;;;;;;;10.35;7.95;;;9.40;88.70;;;;;;5112739;28;20023;-85
2021/04/29 03:17:43;;;;;;;9.77;6.85;;;9.40;90.00;;;;;;5114445;28;20023;-85
2021/04/29 03:20:10;;;;;;;10.45;6.75;;;9.40;90.10;;;;;;5112904;28;20457;-86
2021/04/29 03:22:35;;;;;;;9.88;7.25;;;9.40;90.30;;;;;;5112862;28;20015;-85
2021/04/29 03:25:02;;;;;;;12.18;8.40;;;9.40;90.50;;;;;;5112833;28;20026;-86
2021/04/29 03:27:28;;;;;;;10.07;7.70;;;9.40;90.80;;;;;;5112390;28;20247;-85
2021/04/29 03:29:54;;;;;;;9.75;7.35;;;9.40;90.70;;;;;;5113570;28;20047;-85
2021/04/29 03:32:19;;;;;;;9.40;6.43;;;9.40;90.60;;;;;;5113196;28;20545;-85
2021/04/29 03:34:45;;;;;;;11.63;8.63;;;9.50;90.80;;;;;;5112860;28;20024;-85
2021/04/29 03:37:11;;;;;;;13.15;9.52;;;9.50;91.30;;;;;;5112987;28;20024;-84
2021/04/29 03:39:37;;;;;;;11.80;9.40;;;9.50;91.80;;;;;;5112536;28;20110;-86
2021/04/29 03:42:06;;;;;;;15.60;9.57;;;9.40;92.10;;;;;;5112642;28;20077;-86
2021/04/29 03:44:36;;;;;;;13.95;10.63;;;9.40;92.40;;;;;;5112442;28;20026;-85
2021/04/29 03:47:03;;;;;;;13.55;9.55;;;9.30;92.70;;;;;;5112497;28;20038;-85
2021/04/29 03:49:28;;;;;;;12.85;9.52;;;9.30;92.80;;;;;;5112624;28;20019;-85
2021/04/29 03:51:54;;;;;;;13.52;9.02;;;9.30;92.60;;;;;;5112230;28;20020;-86
2021/04/29 03:54:20;;;;;;;11.02;8.35;;;9.30;92.50;;;;;;5112575;28;20015;-85
2021/04/29 03:56:46;;;;;;;11.15;8.23;;;9.30;92.30;;;;;;5112306;28;20046;-85
2021/04/29 03:59:12;;;;;;;11.55;8.57;;;9.40;92.30;;;;;;5112608;28;20031;-86
2021/04/29 04:01:37;;;;;;;14.32;8.00;;;9.40;92.10;;;;;;5112425;28;20020;-85
2021/04/29 04:04:03;;;;;;;9.45;7.80;;;9.40;92.10;;;;;;5112280;28;20020;-87
2021/04/29 04:06:29;;;;;;;11.52;8.07;;;9.40;92.20;;;;;;5112333;28;20042;-88
2021/04/29 04:08:54;;;;;;;11.30;7.93;;;9.40;92.30;;;;;;5112556;28;20501;-88
2021/04/29 04:11:20;;;;;;;10.68;7.95;;;9.40;92.40;;;;;;5112185;28;20024;-88
2021/04/29 04:13:45;;;;;;;13.20;8.45;;;9.40;92.50;;;;;;5112322;28;20023;-87
2021/04/29 04:16:12;;;;;;;12.25;8.50;;;9.30;92.70;;;;;;5112369;28;20512;-87
2021/04/29 04:18:40;;;;;;;11.82;8.57;;;9.30;92.90;;;;;;5112461;28;20031;-86
2021/04/29 04:21:05;;;;;;;13.50;8.65;;;9.20;93.10;;;;;;5112145;28;20382;-86
2021/04/29 04:23:31;;;;;;;13.00;9.23;;;9.20;93.30;;;;;;5112494;28;20030;-86
2021/04/29 04:25:56;;;;;;;15.40;11.05;;;9.10;93.60;;;;;;5112316;28;20400;-87
2021/04/29 04:28:22;;;;;;;17.20;11.50;;;9.00;94.30;;;;;;5112278;28;20023;-87
2021/04/29 04:30:48;;;;;;;16.85;11.93;;;8.90;95.00;;;;;;5112676;28;20020;-87
2021/04/29 04:33:13;;;;;;;15.55;12.02;;;8.80;95.30;;;;;;5112398;28;20050;-87
2021/04/29 04:35:39;;;;;;;16.40;12.82;;;8.70;95.50;;;;;;5112186;28;20504;-86
2021/04/29 04:38:05;;;;;;;15.18;11.73;;;8.60;95.90;;;;;;5112436;28;20031;-86
2021/04/29 04:40:31;;;;;;;16.77;11.60;;;8.50;96.20;;;;;;5113716;28;20020;-87
2021/04/29 04:42:56;;;;;;;15.00;11.45;;;8.40;96.30;;;;;;5116237;28;20220;-86
2021/04/29 04:45:22;;;;;;;18.25;11.60;;;8.40;96.40;;;;;;5116415;28;20016;-86
2021/04/29 04:47:48;;;;;;;13.18;10.15;;;8.40;96.60;;;;;;5116548;28;20027;-86
2021/04/29 04:50:13;;;;;;;14.25;10.38;;;8.40;96.60;;;;;;5116351;28;20023;-86
2021/04/29 04:52:39;;;;;;;13.48;9.77;;;8.40;96.80;;;;;;5116488;28;20022;-87
2021/04/29 04:55:05;;;;;;;13.30;10.13;;;8.40;96.90;;;;;;5115992;28;20030;-86
2021/04/29 04:57:31;;;;;;;13.30;9.95;;;8.40;96.90;;;;;;5116384;28;20015;-86
2021/04/29 04:59:56;;;;;;;14.13;9.90;;;8.50;97.00;;;;;;5115970;28;20034;-86
2021/04/29 05:02:22;;;;;;;14.20;10.13;;;8.50;97.40;;;;;;5116047;28;20072;-85
2021/04/29 05:04:48;;;;;;;18.50;13.65;;;8.50;97.70;;;;;;5115896;28;20079;-86
2021/04/29 05:07:14;;;;;;;17.65;14.23;;;8.50;98.30;;;;;;5116182;28;20500;-87
2021/04/29 05:09:42;;;;;;;16.30;12.38;;;8.50;98.60;;;;;;5114978;28;20177;-84
2021/04/29 05:12:09;;;;;;;18.73;14.32;;;8.40;98.90;;;;;;5111596;28;20023;-85
2021/04/29 05:14:34;;;;;;;18.00;14.30;;;8.40;99.30;;;;;;5112581;28;20569;-84
2021/04/29 05:17:00;;;;;;;16.33;13.07;;;8.40;99.40;;;;;;5105943;28;20093;-83
2021/04/29 05:19:26;;;;;;;13.82;11.20;;;8.40;99.30;;;;;;5101969;28;20111;-85
2021/04/29 05:21:51;;;;;;;15.88;11.07;;;8.50;99.30;;;;;;5092816;28;20035;-85
2021/04/29 05:24:17;;;;;;;16.67;12.07;;;8.50;99.20;;;;;;5091051;28;20103;-84
2021/04/29 05:26:43;;;;;;;13.88;10.73;;;8.60;99.40;;;;;;5091300;28;20055;-85
2021/04/29 05:29:09;;;;;;;14.73;10.70;;;8.60;99.30;;;;;;5092048;28;20071;-86
2021/04/29 05:31:35;;;;;;;14.43;10.95;;;8.70;99.30;;;;;;5091557;28;20064;-87
2021/04/29 05:34:02;;;;;;;14.30;10.15;;;8.70;99.20;;;;;;5091828;28;20107;-85
2021/04/29 05:36:28;;;;;;;15.38;11.10;;;8.80;99.20;;;;;;5091200;28;20024;-84
2021/04/29 05:38:53;;;;;;;15.57;11.52;;;8.80;99.30;;;;;;5090948;28;20439;-86
2021/04/29 05:41:19;;;;;;;17.27;13.35;;;8.80;99.30;;;;;;5090856;28;20070;-87
2021/04/29 05:43:44;;;;;;;15.45;11.52;;;8.80;99.40;;;;;;5091222;28;20387;-86
2021/04/29 05:46:10;;;;;;;16.33;12.63;;;8.80;99.40;;;;;;5090494;28;20093;-85
2021/04/29 05:48:36;;;;;;;14.82;12.07;;;8.80;99.50;;;;;;5096477;28;20024;-86
2021/04/29 05:51:01;;;;;;;16.13;12.13;;;8.80;99.60;;;;;;5101104;28;20059;-87
2021/04/29 05:53:27;;;;;;;14.23;11.55;;;8.90;99.60;;;;;;5100957;28;20016;-86
2021/04/29 05:55:52;;;;;;;18.10;13.38;;;8.90;99.60;;;;;;5100437;28;20020;-87
2021/04/29 05:58:18;;;;;;;17.58;13.60;;;9.00;99.70;;;;;;5102706;28;20028;-88
2021/04/29 06:00:44;;;;;;;18.10;14.02;;;9.00;99.80;;;;;;5100200;28;20020;-88
2021/04/29 06:03:14;;;;;;;17.35;14.30;;;9.00;99.90;;;;;;5102188;28;20031;-89
2021/04/29 06:05:40;;;;;;;16.80;13.40;;;9.00;99.90;;;;;;5104863;28;20572;-90
2021/04/29 06:08:06;;;;;;;14.60;11.68;;;9.00;99.90;;;;;;5111670;28;20048;-89
2021/04/29 06:10:33;;;;;;;15.93;13.25;;;9.10;99.90;;;;;;5114158;28;20012;-92
2021/04/29 06:12:59;;;;;;;20.15;15.73;;;9.10;99.90;;;;;;5114535;28;20673;-89
2021/04/29 06:15:24;;;;;;;15.18;13.13;;;9.20;99.90;;;;;;5114920;28;20035;-88
2021/04/29 06:17:50;;;;;;;15.45;12.85;;;9.20;99.90;;;;;;5115538;28;20026;-88
2021/04/29 06:20:17;;;;;;;15.85;12.80;;;9.20;99.90;;;;;;5115497;28;20015;-90
2021/04/29 06:22:43;;;;;;;17.23;12.68;;;9.20;99.90;;;;;;5115721;28;20023;-89
2021/04/29 06:25:09;;;;;;;18.30;14.35;;;9.20;99.90;;;;;;5115334;28;20029;-88
2021/04/29 06:27:35;;;;;;;16.83;13.07;;;9.30;99.90;;;;;;5114939;28;20035;-89
2021/04/29 06:30:02;;;;;;;17.58;14.15;;;9.30;99.90;;;;;;5115011;28;20042;-91
2021/04/29 06:32:28;;;;;;;17.08;12.98;;;9.40;99.90;;;;;;5115164;28;20035;-90
2021/04/29 06:34:53;;;;;;;17.80;14.10;;;9.40;99.90;;;;;;5114916;28;20070;-87
2021/04/29 06:37:19;;;;;;;18.27;14.20;;;9.50;99.90;;;;;;5115384;28;20423;-88
2021/04/29 06:39:46;;;;;;;17.85;15.10;;;9.50;99.90;;;;;;5114764;28;20020;-87
2021/04/29 06:42:12;;;;;;;18.02;14.88;;;9.50;99.90;;;;;;5113979;28;20024;-87
2021/04/29 06:44:39;;;;;;;18.80;14.90;;;9.60;99.90;;;;;;5114180;28;20035;-88
2021/04/29 06:47:05;;;;;;;17.88;13.38;;;9.60;99.90;;;;;;5114136;28;20035;-86
2021/04/29 06:49:30;;;;;;;18.23;13.70;;;9.70;99.90;;;;;;5113797;28;20019;-86
2021/04/29 06:51:57;;;;;;;16.02;13.05;;;9.70;99.90;;;;;;5113935;28;20023;-88
2021/04/29 06:54:23;;;;;;;16.13;13.65;;;9.80;99.90;;;;;;5114045;28;20024;-85
2021/04/29 06:56:48;;;;;;;15.93;13.18;;;9.80;99.90;;;;;;5113439;28;20034;-86
2021/04/29 06:59:14;;;;;;;15.85;11.82;;;9.80;99.90;;;;;;5113607;28;20469;-87
2021/04/29 07:01:40;;;;;;;15.20;11.98;;;9.90;99.90;;;;;;5114053;28;20020;-86
2021/04/29 07:04:05;;;;;;;21.83;15.07;;;9.90;99.90;;;;;;5112669;28;20024;-87
2021/04/29 07:06:31;;;;;;;18.08;13.52;;;10.00;99.90;;;;;;5113600;28;20393;-87
2021/04/29 07:09:02;;;;;;;18.10;14.73;;;10.00;99.90;;;;;;5112381;28;20082;-87
2021/04/29 07:11:29;;;;;;;16.27;13.43;;;9.90;99.90;;;;;;5113454;28;20548;-89
2021/04/29 07:13:55;;;;;;;15.27;12.98;;;9.90;99.90;;;;;;5113634;28;20028;-86
2021/04/29 07:16:21;;;;;;;17.05;12.82;;;10.00;99.90;;;;;;5113956;28;20032;-88
2021/04/29 07:18:47;;;;;;;15.88;13.88;;;10.00;99.90;;;;;;5113748;28;20015;-88
2021/04/29 07:21:12;;;;;;;14.55;11.63;;;10.00;99.90;;;;;;5113781;28;20471;-88
2021/04/29 07:23:38;;;;;;;16.63;13.15;;;10.00;99.90;;;;;;5113691;28;20019;-89
2021/04/29 07:26:04;;;;;;;16.98;13.15;;;10.00;99.90;;;;;;5114056;28;20553;-90
2021/04/29 07:28:29;;;;;;;15.13;11.85;;;10.00;99.90;;;;;;5113497;28;20020;-87
2021/04/29 07:30:55;;;;;;;13.65;11.38;;;10.00;99.90;;;;;;5113220;28;20058;-88
2021/04/29 07:33:21;;;;;;;15.60;12.23;;;10.10;99.90;;;;;;5112908;28;20034;-88
2021/04/29 07:35:48;;;;;;;14.63;11.27;;;10.10;99.90;;;;;;5112904;28;20030;-87
2021/04/29 07:38:13;;;;;;;13.32;11.13;;;10.00;99.90;;;;;;5113158;28;20027;-88
2021/04/29 07:40:39;;;;;;;13.98;10.25;;;10.10;99.90;;;;;;5112698;28;20069;-87
2021/04/29 07:43:05;;;;;;;14.75;11.45;;;10.20;99.90;;;;;;5112708;28;20450;-88
2021/04/29 07:45:31;;;;;;;13.85;10.98;;;10.20;99.90;;;;;;5112804;28;20030;-87
2021/04/29 07:47:57;;;;;;;15.50;12.23;;;10.20;99.90;;;;;;5112560;28;20024;-87
2021/04/29 07:50:24;;;;;;;13.50;11.48;;;10.30;99.90;;;;;;5112835;28;20065;-88
2021/04/29 07:52:50;;;;;;;14.73;11.13;;;10.30;99.90;;;;;;5112598;28;20035;-86
2021/04/29 07:55:17;;;;;;;13.30;10.65;;;10.40;99.90;;;;;;5112661;28;20634;-86
2021/04/29 07:57:43;;;;;;;14.25;11.40;;;10.40;99.90;;;;;;5113797;28;20084;-88
2021/04/29 08:00:12;;;;;;;12.73;9.88;;;10.40;99.90;;;;;;5113874;28;20500;-88
2021/04/29 08:02:37;;;;;;;15.85;12.52;;;10.40;99.90;;;;;;5113409;28;20012;-89
2021/04/29 08:05:05;;;;;;;13.70;10.57;;;10.40;99.90;;;;;;5117615;28;20083;-90
2021/04/29 08:07:30;;;;;;;13.38;10.85;;;10.30;99.90;;;;;;5112306;28;20073;-89
2021/04/29 08:09:56;;;;;;;15.27;11.38;;;10.30;99.90;;;;;;5112475;28;20024;-88
2021/04/29 08:12:22;;;;;;;13.43;11.15;;;10.20;99.90;;;;;;5112982;28;20511;-88
2021/04/29 08:14:48;;;;;;;12.60;9.85;;;10.20;99.90;;;;;;5114328;28;20015;-87
2021/04/29 08:17:14;;;;;;;12.73;10.02;;;10.20;99.90;;;;;;5116594;28;20016;-87
2021/04/29 08:19:40;;;;;;;15.18;10.55;;;10.20;99.90;;;;;;5116602;28;20562;-86
2021/04/29 08:22:05;;;;;;;11.85;9.68;;;10.20;99.90;;;;;;5116295;28;20385;-86
2021/04/29 08:24:31;;;;;;;11.77;9.70;;;10.20;99.90;;;;;;5116440;28;20019;-86
2021/04/29 08:26:57;;;;;;;12.57;9.70;;;10.30;99.90;;;;;;5116671;28;20126;-87
2021/04/29 08:29:23;;;;;;;16.00;12.38;;;10.30;99.90;;;;;;5116449;28;20055;-87
2021/04/29 08:31:50;;;;;;;15.85;11.60;;;10.40;99.90;;;;;;5116136;28;20020;-88
2021/04/29 08:34:15;;;;;;;14.35;12.15;;;10.40;99.90;;;;;;5116327;28;20015;-87
2021/04/29 08:36:41;;;;;;;16.05;12.85;;;10.50;99.90;;;;;;5116523;28;20084;-88
2021/04/29 08:39:07;;;;;;;11.82;9.80;;;10.60;99.90;;;;;;5116522;28;20108;-87
2021/04/29 08:41:33;;;;;;;16.27;11.23;;;10.70;99.90;;;;;;5115937;28;20038;-88
2021/04/29 08:44:00;;;;;;;15.00;11.75;;;10.70;99.90;;;;;;5116212;28;20028;-87
2021/04/29 08:46:25;;;;;;;14.63;11.27;;;10.70;99.90;;;;;;5116185;28;20035;-88
2021/04/29 08:48:56;;;;;;;13.25;10.73;;;10.60;99.90;;;;;;5116386;28;20035;-87
2021/04/29 08:51:23;;;;;;;15.75;11.90;;;10.60;99.90;;;;;;5116109;28;20038;-89
2021/04/29 08:53:50;;;;;;;14.18;10.50;;;10.50;99.90;;;;;;5115716;28;20069;-87
2021/04/29 08:56:21;;;;;;;12.93;9.88;;;10.50;99.90;;;;;;5116082;28;20020;-87
2021/04/29 08:58:48;;;;;;;13.23;11.10;;;10.50;99.90;;;;;;5116109;28;20253;-87
2021/04/29 09:01:14;;;;;;;14.00;10.70;;;10.50;99.90;;;;;;5115902;28;20038;-87
2021/04/29 09:03:40;;;;;;;11.93;10.18;;;10.50;99.90;;;;;;5115776;28;20019;-88
2021/04/29 09:06:06;;;;;;;14.65;12.77;;;10.60;99.90;;;;;;5115649;28;20537;-88
2021/04/29 09:08:34;;;;;;;17.40;14.27;;;10.70;99.90;;;;;;5115568;28;20062;-88
2021/04/29 09:11:06;;;;;;;15.70;13.35;;;10.70;99.90;;;;;;5115504;28;20020;-87
2021/04/29 09:13:31;;;;;;;16.83;14.38;;;10.80;99.90;;;;;;5115755;28;20024;-88
2021/04/29 09:16:08;;;;;;;21.08;14.70;;;10.80;99.90;;;;;;5115524;28;20019;-87
2021/04/29 09:18:34;;;;;;;15.65;13.32;;;10.80;99.90;;;;;;5115811;28;20028;-87
2021/04/29 09:21:05;;;;;;;17.48;13.32;;;10.80;99.90;;;;;;5115305;28;20039;-88
2021/04/29 09:23:34;;;;;;;15.35;13.07;;;10.90;99.90;;;;;;5115560;28;20018;-87
2021/04/29 09:26:06;;;;;;;13.00;11.30;;;10.90;99.90;;;;;;5114264;28;20034;-87
2021/04/29 09:28:38;;;;;;;15.05;11.52;;;10.80;99.90;;;;;;5115642;28;20024;-89
2021/04/29 09:31:05;;;;;;;16.17;13.45;;;10.80;99.90;;;;;;5116049;28;20457;-89
2021/04/29 09:33:36;;;;;;;15.90;12.27;;;10.70;99.90;;;;;;5115734;28;20065;-89
2021/04/29 09:36:04;;;;;;;13.85;11.38;;;10.70;99.90;;;;;;5115777;28;20069;-88
2021/04/29 09:38:36;;;;;;;14.18;10.20;;;10.60;99.90;;;;;;5116007;28;20077;-88
2021/04/29 09:41:03;;;;;;;15.93;12.15;;;10.60;99.90;;;;;;5099646;28;20034;-88
2021/04/29 09:43:28;;;;;;;15.38;12.63;;;10.50;99.90;;;;;;5093857;28;20489;-89
2021/04/29 09:45:56;;;;;;;13.20;11.13;;;10.50;99.90;;;;;;5094097;28;20024;-87
2021/04/29 09:48:23;;;;;;;13.32;11.15;;;10.40;99.90;;;;;;5107086;28;20024;-88
2021/04/29 09:50:51;;;;;;;14.48;12.02;;;10.40;99.90;;;;;;5105406;28;20084;-87
2021/04/29 09:53:17;;;;;;;14.77;11.95;;;10.40;99.90;;;;;;5103099;28;20013;-87
2021/04/29 09:55:47;;;;;;;16.45;12.55;;;10.50;99.90;;;;;;5094065;28;20016;-87
2021/04/29 09:58:17;;;;;;;15.32;12.02;;;10.40;99.90;;;;;;5105178;28;20545;-87
2021/04/29 10:00:44;;;;;;;14.45;12.23;;;10.40;99.90;;;;;;5098885;28;20031;-87
2021/04/29 10:03:11;;;;;;;16.13;11.95;;;10.40;99.90;;;;;;5110471;28;20027;-87
2021/04/29 10:05:40;;;;;;;15.40;13.10;;;10.40;99.90;;;;;;5093197;28;20039;-87
2021/04/29 10:08:12;;;;;;;16.73;13.43;;;10.40;99.90;;;;;;5104242;28;20044;-89
2021/04/29 10:10:40;;;;;;;16.48;11.45;;;10.30;99.90;;;;;;5114471;28;20496;-88
2021/04/29 10:13:07;;;;;;;17.70;13.98;;;10.30;99.90;;;;;;5104610;28;20492;-88
2021/04/29 10:15:38;;;;;;;20.40;14.27;;;10.20;99.90;;;;;;5099494;28;20016;-88
2021/04/29 10:18:07;;;;;;;18.65;15.10;;;10.20;99.90;;;;;;5103786;28;20019;-90
2021/04/29 10:20:38;;;;;;;21.83;16.30;;;10.20;99.90;;;;;;5100679;28;20032;-88
2021/04/29 10:23:06;;;;;;;19.08;16.20;;;10.10;99.90;;;;;;5100574;28;20419;-89
2021/04/29 10:25:33;;;;;;;18.05;14.48;;;10.00;99.90;;;;;;5099225;28;20019;-88
2021/04/29 10:28:00;;;;;;;19.92;14.38;;;9.90;99.90;;;;;;5104431;28;20500;-89
2021/04/29 10:30:38;;;;;;;19.02;15.80;;;10.00;99.90;;;;;;5106621;28;20015;-89
2021/04/29 10:33:18;;;;;;;17.30;14.13;;;10.00;99.90;;;;;;5100132;28;20118;-88
2021/04/29 10:36:11;;;;;;;18.55;15.25;;;10.10;99.90;;;;;;5089351;28;20032;-87
2021/04/29 10:38:37;;;;;;;19.17;14.05;;;10.10;99.90;;;;;;5100464;28;20036;-87
2021/04/29 10:41:24;;;;;;;16.80;13.82;;;10.00;99.90;;;;;;5098586;28;20023;-87
2021/04/29 10:43:52;;;;;;;15.07;12.25;;;10.10;99.90;;;;;;5089277;28;20032;-88
2021/04/29 10:46:32;;;;;;;15.18;12.90;;;10.10;99.90;;;;;;5105148;28;20035;-86
2021/04/29 10:49:00;;;;;;;18.10;13.90;;;10.20;99.90;;;;;;5101415;28;20066;-85
2021/04/29 10:51:41;;;;;;;18.42;14.88;;;10.10;99.90;;;;;;5103997;28;20016;-86
2021/04/29 10:54:25;;;;;;;21.42;16.20;;;10.10;99.90;;;;;;5099227;28;20494;-92
2021/04/29 10:57:07;;;;;;;19.00;14.35;;;10.10;99.90;;;;;;5088850;28;20111;-86
2021/04/29 10:59:41;;;;;;;19.05;14.70;;;10.00;99.90;;;;;;5091217;28;20016;-86
2021/04/29 11:02:23;;;;;;;17.15;14.30;;;9.90;99.90;;;;;;5094334;28;20790;-89
2021/04/29 11:04:51;;;;;;;17.30;14.25;;;9.90;99.90;;;;;;5113003;28;20081;-88
2021/04/29 11:07:18;;;;;;;17.10;14.77;;;9.70;99.90;;;;;;5111875;28;20054;-86
2021/04/29 11:09:43;;;;;;;19.05;14.75;;;9.70;99.90;;;;;;5104450;28;20107;-85
2021/04/29 11:12:10;;;;;;;14.90;12.55;;;9.60;99.90;;;;;;5110796;28;20110;-86
2021/04/29 11:14:37;;;;;;;15.57;12.77;;;9.60;99.90;;;;;;5092585;28;20108;-84
2021/04/29 11:17:03;;;;;;;13.65;11.68;;;9.60;99.90;;;;;;5092206;28;20487;-85
2021/04/29 11:19:41;;;;;;;13.60;10.50;;;9.60;99.90;;;;;;5092380;28;20028;-87
2021/04/29 11:22:11;;;;;;;11.50;9.82;;;9.50;99.90;;;;;;5094464;28;20066;-85
2021/04/29 11:24:42;;;;;;;11.07;9.68;;;9.60;99.90;;;;;;5113538;28;20020;-87
2021/04/29 11:27:30;;;;;;;10.77;9.18;;;9.50;99.90;;;;;;5110337;28;20300;-86
2021/04/29 11:30:12;;;;;;;14.35;11.60;;;9.60;99.90;;;;;;5095829;28;20027;-86
2021/04/29 11:32:39;;;;;;;11.50;9.88;;;9.50;99.90;;;;;;5099069;28;20026;-87
2021/04/29 11:35:26;;;;;;;11.93;9.60;;;9.40;99.90;;;;;;5113338;28;20064;-88
2021/04/29 11:37:52;;;;;;;13.98;12.25;;;9.40;99.90;;;;;;5112707;28;20067;-86
2021/04/29 11:40:19;;;;;;;16.42;11.82;;;9.40;99.90;;;;;;5113018;28;20025;-87
2021/04/29 11:42:52;;;;;;;13.45;11.40;;;9.40;99.90;;;;;;5103205;28;20070;-87
2021/04/29 11:45:19;;;;;;;;;;;9.40;99.90;;;;;;5093717;28;20474;-87
2021/04/29 11:47:58;;;;;;;11.23;9.73;;;9.40;99.90;;;;;;5093166;28;19912;-87
2021/04/29 11:50:44;;;;;;;10.73;9.57;;;9.40;99.90;;;;;;5092346;28;20090;-87
2021/04/29 11:53:13;;;;;;;12.55;10.52;;;9.50;99.90;;;;;;5112775;28;20435;-87
2021/04/29 11:55:48;;;;;;;12.88;10.65;;;9.50;99.90;;;;;;5109791;28;20093;-85
2021/04/29 11:58:16;;;;;;;14.13;12.65;;;9.50;99.90;;;;;;5107642;28;20035;-87
2021/04/29 12:00:50;;;;;;;13.57;11.25;;;9.50;99.90;;;;;;5094950;28;20028;-88
2021/04/29 12:03:16;;;;;;;13.48;10.25;;;9.50;99.90;;;;;;5092419;28;20025;-86
2021/04/29 12:05:53;;;;;;;13.65;11.52;;;9.40;99.90;;;;;;5092557;28;20367;-88
2021/04/29 12:08:32;;;;;;;13.40;10.80;;;9.40;99.90;;;;;;5093547;28;20056;-87
2021/04/29 12:11:11;;;;;;;11.52;10.32;;;9.30;99.90;;;;;;5094403;28;20482;-87
2021/04/29 12:13:40;;;;;;;12.95;10.18;;;9.30;99.90;;;;;;5106467;28;20519;-85
2021/04/29 12:16:28;;;;;;;12.13;10.15;;;9.30;99.90;;;;;;5092930;28;20047;-87
2021/04/29 12:18:58;;;;;;;12.05;9.30;;;9.30;99.90;;;;;;5092703;28;20115;-87
2021/04/29 12:21:28;;;;;;;12.23;10.23;;;9.20;99.90;;;;;;5092429;28;20021;-87
2021/04/29 12:24:02;;;;;;;12.00;9.30;;;9.20;99.90;;;;;;5092472;28;20020;-85
2021/04/29 12:26:39;;;;;;;16.05;12.90;;;9.20;99.90;;;;;;5093554;28;20565;-87
2021/04/29 12:29:10;;;;;;;14.98;12.50;;;9.10;99.90;;;;;;5093719;28;20028;-87
2021/04/29 12:31:39;;;;;;;15.77;11.68;;;8.90;99.90;;;;;;5092599;28;20024;-86
2021/04/29 12:34:05;;;;;;;13.52;11.15;;;8.80;99.90;;;;;;5107410;28;20069;-87
2021/04/29 12:36:53;;;;;;;13.48;10.60;;;8.80;99.90;;;;;;5113326;28;20032;-87
2021/04/29 12:39:20;;;;;;;13.45;10.65;;;8.70;99.90;;;;;;5082586;28;20123;-86
2021/04/29 12:41:54;;;;;;;14.50;11.48;;;8.70;99.90;;;;;;5092368;28;20409;-86